Time;durP1;ratioP1;P1;durP2;ratioP2;P2;SDS_P1;SDS_P2;PMS_P1;PMS_P2;Temp;Humidity;BMP_temperature;BMP_pressure;BME280_temperature;BME280_humidity;BME280_pressure;Samples;Min_cycle;Max_cycle;Signal;HPM_P1;HPM_P2
2022/04/24 00:00:42;;;;;;;35.33;19.50;;;;;;;9.05;78.78;91902.50;5064790;28;20049;-52
2022/04/24 00:03:09;;;;;;;39.72;19.65;;;;;;;9.08;79.11;91898.88;5058710;28;20072;-47
2022/04/24 00:05:36;;;;;;;41.03;21.38;;;;;;;9.10;78.94;91898.44;5049357;28;20041;-47
2022/04/24 00:08:03;;;;;;;37.25;20.08;;;;;;;9.06;79.39;91892.34;5072419;28;20048;-45
2022/04/24 00:10:30;;;;;;;38.25;21.02;;;;;;;8.88;79.89;91882.91;5089534;28;20416;-47
2022/04/24 00:12:57;;;;;;;38.67;19.83;;;;;;;8.91;80.17;91895.66;5090075;28;20048;-45
2022/04/24 00:15:24;;;;;;;35.80;19.60;;;;;;;9.04;79.33;91908.44;5089902;28;20052;-51
2022/04/24 00:17:51;;;;;;;35.95;19.40;;;;;;;9.12;78.80;91902.22;5089479;28;20044;-46
2022/04/24 00:20:18;;;;;;;36.33;19.73;;;;;;;9.08;79.40;91920.75;5089564;28;20048;-46
2022/04/24 00:22:45;;;;;;;37.00;19.65;;;;;;;9.15;78.43;91933.38;5089248;28;20048;-51
2022/04/24 00:25:11;;;;;;;39.17;20.83;;;;;;;8.98;78.84;91932.91;5090163;28;20040;-46
2022/04/24 00:27:38;;;;;;;34.33;18.80;;;;;;;9.17;78.49;91920.75;5089697;28;20048;-45
2022/04/24 00:30:05;;;;;;;40.17;20.23;;;;;;;9.16;78.35;91919.25;5070338;28;20041;-46
2022/04/24 00:32:32;;;;;;;37.72;20.50;;;;;;;9.11;78.65;91932.75;5069442;28;20455;-49
2022/04/24 00:34:58;;;;;;;37.30;19.70;;;;;;;9.14;78.79;91915.44;5069592;28;20041;-45
2022/04/24 00:37:25;;;;;;;38.87;19.83;;;;;;;9.18;78.16;91918.81;5070113;28;20049;-50
2022/04/24 00:39:52;;;;;;;36.63;19.20;;;;;;;9.18;78.53;91930.50;5069276;28;20721;-49
2022/04/24 00:42:19;;;;;;;36.30;19.58;;;;;;;9.20;78.22;91943.72;5069479;28;20049;-47
2022/04/24 00:44:45;;;;;;;37.42;19.75;;;;;;;8.90;79.87;91942.63;5067879;28;20074;-45
2022/04/24 00:47:21;;;;;;;36.70;19.38;;;;;;;8.65;81.11;91941.63;5069409;28;20045;-47
2022/04/24 00:49:49;;;;;;;36.87;19.33;;;;;;;8.76;80.79;91958.38;5068948;28;20048;-47
2022/04/24 00:52:18;;;;;;;37.20;20.08;;;;;;;8.82;80.51;91966.78;5070710;28;20058;-47
2022/04/24 00:54:44;;;;;;;41.95;21.23;;;;;;;8.85;80.36;91978.78;5072624;28;20041;-50
2022/04/24 00:57:13;;;;;;;39.47;20.60;;;;;;;8.90;80.58;91970.75;5072957;28;20051;-53
2022/04/24 00:59:40;;;;;;;37.50;19.88;;;;;;;9.00;80.43;91977.75;5072513;28;20497;-49
2022/04/24 01:02:09;;;;;;;38.57;20.07;;;;;;;9.08;80.21;91989.16;5072895;28;20049;-49
2022/04/24 01:04:38;;;;;;;39.80;19.55;;;;;;;9.02;80.31;92003.91;5072596;28;20074;-48
2022/04/24 01:07:05;;;;;;;43.70;20.63;;;;;;;8.94;81.46;92014.38;5075012;28;20040;-47
2022/04/24 01:09:34;;;;;;;48.33;22.35;;;;;;;8.77;82.73;92013.84;5085709;28;20045;-45
2022/04/24 01:12:02;;;;;;;48.80;22.88;;;;;;;8.76;82.75;92013.09;5061755;28;20064;-47
2022/04/24 01:14:30;;;;;;;48.93;22.80;;;;;;;8.69;83.55;92024.31;5052622;28;20059;-47
2022/04/24 01:16:59;;;;;;;45.47;22.10;;;;;;;8.74;83.68;92020.22;5051987;28;20235;-47
2022/04/24 01:19:26;;;;;;;42.55;22.10;;;;;;;8.78;84.80;92010.66;5052642;28;20052;-45
2022/04/24 01:21:54;;;;;;;40.92;20.95;;;;;;;8.93;84.16;92013.63;5052334;28;20049;-45
2022/04/24 01:24:24;;;;;;;43.20;21.77;;;;;;;8.86;85.34;92011.16;5052920;28;20533;-45
2022/04/24 01:26:51;;;;;;;42.00;21.90;;;;;;;8.92;85.04;92005.84;5052180;28;20056;-46
2022/04/24 01:29:19;;;;;;;43.33;21.45;;;;;;;8.82;85.24;92001.56;5078816;28;20051;-46
2022/04/24 01:31:49;;;;;;;43.67;22.80;;;;;;;8.79;86.02;92004.00;5092222;28;20051;-49
2022/04/24 01:34:19;;;;;;;45.30;22.73;;;;;;;8.78;85.97;91998.97;5093018;28;20044;-47
2022/04/24 01:36:47;;;;;;;41.97;21.75;;;;;;;8.66;86.47;92003.31;5092126;28;20048;-50
2022/04/24 01:39:15;;;;;;;41.60;21.40;;;;;;;8.74;86.72;92003.81;5091593;28;20055;-45
2022/04/24 01:41:43;;;;;;;44.85;22.83;;;;;;;8.74;87.31;91993.63;5092079;28;20048;-52
2022/04/24 01:44:11;;;;;;;45.88;23.27;;;;;;;8.74;87.01;91990.16;5092753;28;20050;-45
2022/04/24 01:46:37;;;;;;;42.80;21.60;;;;;;;8.71;86.54;91991.81;5092093;28;20441;-48
2022/04/24 01:49:04;;;;;;;41.72;22.10;;;;;;;8.79;86.40;91998.53;5092142;28;20044;-50
2022/04/24 01:51:31;;;;;;;45.07;22.10;;;;;;;8.69;87.09;91994.25;5090617;28;20055;-49
2022/04/24 01:53:58;;;;;;;83.47;43.13;;;;;;;8.66;86.56;91997.84;5092259;28;20048;-54
2022/04/24 01:56:24;;;;;;;43.92;23.05;;;;;;;8.66;86.00;91999.84;5092306;28;20059;-54
2022/04/24 01:58:51;;;;;;;42.45;21.92;;;;;;;8.63;87.17;92003.47;5091633;28;20048;-45
2022/04/24 02:01:18;;;;;;;42.47;22.02;;;;;;;8.43;87.37;92004.63;5091957;28;20399;-47
2022/04/24 02:03:45;;;;;;;43.87;21.70;;;;;;;8.46;88.26;92013.88;5091096;28;20044;-50
2022/04/24 02:06:12;;;;;;;43.90;22.58;;;;;;;8.46;87.71;92003.69;5092063;28;20040;-48
2022/04/24 02:08:39;;;;;;;41.13;21.92;;;;;;;8.33;87.81;92009.25;5073734;28;20101;-48
2022/04/24 02:11:08;;;;;;;45.78;22.50;;;;;;;8.24;88.82;92016.63;5064745;28;20040;-52
2022/04/24 02:13:35;;;;;;;47.83;22.77;;;;;;;8.23;88.38;92023.28;5051603;28;20048;-45
2022/04/24 02:16:02;;;;;;;45.00;22.20;;;;;;;8.20;90.06;92027.69;5051655;28;20044;-47
2022/04/24 02:18:29;;;;;;;45.85;22.65;;;;;;;8.22;90.07;92017.06;5050955;28;20490;-46
2022/04/24 02:20:56;;;;;;;57.55;25.92;;;;;;;8.27;91.08;92027.44;5051503;28;20049;-50
2022/04/24 02:23:22;;;;;;;48.80;24.10;;;;;;;8.33;90.45;92035.78;5050122;28;20557;-48
2022/04/24 02:25:49;;;;;;;49.58;23.10;;;;;;;8.21;91.05;92034.69;5051319;28;20057;-47
2022/04/24 02:28:16;;;;;;;48.00;23.63;;;;;;;8.24;92.54;92033.78;5060375;28;20044;-48
2022/04/24 02:30:43;;;;;;;50.47;23.45;;;;;;;8.09;92.69;92033.53;5089909;28;20450;-48
2022/04/24 02:33:10;;;;;;;56.95;25.05;;;;;;;7.98;93.09;92041.34;5091204;28;20055;-49
2022/04/24 02:35:37;;;;;;;51.42;24.08;;;;;;;7.89;93.63;92042.06;5090690;28;20044;-46
2022/04/24 02:38:04;;;;;;;48.28;24.63;;;;;;;7.89;94.23;92047.53;5091320;28;20050;-48
2022/04/24 02:40:30;;;;;;;49.47;23.83;;;;;;;7.91;94.04;92053.28;5090985;28;20048;-46
2022/04/24 02:42:57;;;;;;;52.70;24.80;;;;;;;7.88;94.55;92051.44;5091433;28;20047;-46
2022/04/24 02:45:24;;;;;;;53.08;24.13;;;;;;;7.81;95.42;92059.91;5091310;28;20040;-47
2022/04/24 02:47:51;;;;;;;43.35;20.08;;;;;;;7.73;94.75;92070.28;5091000;28;20062;-49
2022/04/24 02:50:17;;;;;;;45.00;20.42;;;;;;;7.67;94.96;92098.63;5091055;28;20040;-46
2022/04/24 02:52:49;;;;;;;19.00;9.60;;;;;;;7.49;92.33;92119.06;5090704;28;20036;-48
2022/04/24 02:55:16;;;;;;;9.85;4.70;;;;;;;7.13;86.91;92130.34;5091205;28;20044;-49
2022/04/24 02:57:44;;;;;;;6.82;3.13;;;;;;;6.89;85.47;92130.66;5090647;28;20041;-48
2022/04/24 03:00:13;;;;;;;6.85;3.45;;;;;;;6.90;86.50;92158.69;5091097;28;20501;-57
2022/04/24 03:02:44;;;;;;;5.28;2.20;;;;;;;6.65;84.91;92156.72;5090070;28;20503;-49
2022/04/24 03:05:17;;;;;;;3.23;1.40;;;;;;;6.50;83.96;92170.75;5091049;28;20040;-48
2022/04/24 03:07:44;;;;;;;4.85;1.30;;;;;;;6.37;85.13;92178.88;5081673;28;20058;-50
2022/04/24 03:10:11;;;;;;;3.97;1.20;;;;;;;6.21;84.34;92187.09;5066010;28;20053;-52
2022/04/24 03:12:39;;;;;;;1.90;0.70;;;;;;;6.11;81.70;92180.75;5061351;28;20037;-46
2022/04/24 03:15:08;;;;;;;1.90;0.77;;;;;;;6.12;82.38;92190.44;5069920;28;20044;-49
2022/04/24 03:17:35;;;;;;;3.13;1.07;;;;;;;6.04;82.15;92194.56;5068106;28;20047;-46
2022/04/24 03:20:04;;;;;;;2.00;0.80;;;;;;;6.06;81.09;92183.25;5070085;28;20037;-49
2022/04/24 03:22:33;;;;;;;5.18;1.10;;;;;;;6.19;81.71;92181.31;5070119;28;20428;-49
2022/04/24 03:25:02;;;;;;;2.17;0.70;;;;;;;5.95;83.24;92176.09;5070457;28;20478;-47
2022/04/24 03:27:29;;;;;;;2.50;0.70;;;;;;;6.20;82.23;92170.00;5069162;28;20505;-48
2022/04/24 03:29:55;;;;;;;1.53;0.57;;;;;;;5.57;83.92;92143.22;5107781;28;20498;-47
2022/04/24 03:32:22;;;;;;;1.60;0.60;;;;;;;5.70;84.15;92129.69;5069265;28;20060;-51
2022/04/24 03:34:50;;;;;;;1.55;0.50;;;;;;;5.80;83.83;92109.59;5052381;28;20186;-50
2022/04/24 03:37:18;;;;;;;2.38;0.82;;;;;;;5.89;84.42;92092.63;5050388;28;20037;-55
2022/04/24 03:39:45;;;;;;;2.88;0.80;;;;;;;5.71;84.71;92069.34;5049942;28;20041;-53
2022/04/24 03:42:12;;;;;;;1.80;0.60;;;;;;;5.59;86.13;92061.91;5048696;28;20055;-48
2022/04/24 03:44:39;;;;;;;2.97;0.75;;;;;;;5.51;86.52;92080.38;5048649;28;20055;-46
2022/04/24 03:47:07;;;;;;;1.58;0.52;;;;;;;5.67;85.79;92078.81;5050223;28;20048;-49
2022/04/24 03:49:35;;;;;;;1.30;0.40;;;;;;;5.70;85.51;92094.31;5049322;28;20055;-48
2022/04/24 03:52:02;;;;;;;1.30;0.50;;;;;;;5.68;83.71;92102.13;5050089;28;20052;-52
2022/04/24 03:54:29;;;;;;;1.80;0.73;;;;;;;5.48;85.84;92110.41;5050060;28;20067;-46
2022/04/24 03:56:55;;;;;;;3.35;0.90;;;;;;;5.66;86.24;92109.97;5058252;28;20308;-49
2022/04/24 03:59:22;;;;;;;2.65;0.70;;;;;;;5.71;85.69;92112.91;5050067;28;20041;-50
2022/04/24 04:01:49;;;;;;;2.45;0.60;;;;;;;5.35;86.72;92107.59;5049662;28;20056;-45
2022/04/24 04:04:17;;;;;;;1.98;0.50;;;;;;;5.58;86.64;92129.19;5048746;28;20041;-48
2022/04/24 04:06:43;;;;;;;1.57;0.40;;;;;;;5.79;86.67;92132.53;5048759;28;20041;-50
2022/04/24 04:09:10;;;;;;;1.30;0.40;;;;;;;5.65;86.89;92125.50;5089016;28;20055;-49
2022/04/24 04:11:37;;;;;;;1.98;0.60;;;;;;;5.65;86.75;92122.78;5089547;28;20040;-51
2022/04/24 04:14:04;;;;;;;1.55;0.38;;;;;;;5.67;86.71;92125.09;5088870;28;20125;-48
2022/04/24 04:16:31;;;;;;;1.48;0.40;;;;;;;5.82;86.92;92141.81;5089511;28;20044;-47
2022/04/24 04:18:58;;;;;;;2.13;0.57;;;;;;;5.76;86.71;92133.41;5090107;28;20534;-45
2022/04/24 04:21:25;;;;;;;1.73;0.63;;;;;;;5.89;86.45;92125.28;5090018;28;20063;-54
2022/04/24 04:23:51;;;;;;;1.95;0.60;;;;;;;6.02;86.94;92122.63;5089671;28;20424;-50
2022/04/24 04:26:18;;;;;;;1.35;0.40;;;;;;;6.05;87.18;92121.78;5090122;28;20408;-50
2022/04/24 04:28:45;;;;;;;1.55;0.50;;;;;;;6.02;87.09;92122.63;5084845;28;20108;-52
2022/04/24 04:31:12;;;;;;;3.03;0.90;;;;;;;5.93;87.02;92117.78;5073724;28;20053;-46
2022/04/24 04:33:40;;;;;;;2.92;1.00;;;;;;;6.00;85.36;92121.13;5073247;28;20051;-46
2022/04/24 04:36:07;;;;;;;4.93;1.20;;;;;;;6.12;85.50;92130.53;5055919;28;20060;-48
2022/04/24 04:38:33;;;;;;;3.55;0.80;;;;;;;6.07;84.67;92141.94;5073034;28;20043;-50
2022/04/24 04:41:00;;;;;;;3.35;0.80;;;;;;;5.94;84.55;92165.63;5072486;28;20041;-51
2022/04/24 04:43:28;;;;;;;16.40;1.40;;;;;;;5.95;85.55;92156.28;5061339;28;20037;-48
2022/04/24 04:45:56;;;;;;;2.30;0.73;;;;;;;6.04;84.34;92167.31;5070826;28;20631;-50
2022/04/24 04:48:23;;;;;;;2.55;0.80;;;;;;;5.85;84.28;92174.38;5072356;28;20037;-47
2022/04/24 04:50:50;;;;;;;2.28;0.50;;;;;;;6.05;83.82;92174.28;5072801;28;20058;-53
2022/04/24 04:53:17;;;;;;;1.83;0.60;;;;;;;6.03;83.90;92179.41;5072033;28;20044;-53
2022/04/24 04:55:44;;;;;;;1.47;0.50;;;;;;;6.11;83.64;92169.09;5072756;28;20048;-51
2022/04/24 04:58:11;;;;;;;1.85;0.55;;;;;;;6.27;82.51;92173.72;5073508;28;20049;-48
2022/04/24 05:00:38;;;;;;;3.55;0.70;;;;;;;6.37;82.24;92178.88;5072685;28;20051;-55
2022/04/24 05:03:05;;;;;;;3.08;0.47;;;;;;;6.45;82.14;92176.72;5071791;28;20059;-47
2022/04/24 05:05:32;;;;;;;1.50;0.60;;;;;;;6.36;82.06;92188.25;5072765;28;20041;-48
2022/04/24 05:07:59;;;;;;;1.90;0.60;;;;;;;6.31;82.30;92183.31;5072989;28;20049;-50
2022/04/24 05:10:26;;;;;;;4.90;1.27;;;;;;;6.23;83.22;92189.41;5073228;28;20044;-55
2022/04/24 05:12:52;;;;;;;3.67;1.10;;;;;;;6.31;84.87;92185.28;5072666;28;20048;-50
2022/04/24 05:15:21;;;;;;;1.90;0.70;;;;;;;6.36;84.10;92188.25;5073166;28;20405;-50
2022/04/24 05:17:48;;;;;;;1.50;0.60;;;;;;;6.20;82.60;92182.84;5071958;28;20048;-54
2022/04/24 05:20:15;;;;;;;3.30;0.80;;;;;;;6.21;83.38;92187.09;5072580;28;20036;-50
2022/04/24 05:22:41;;;;;;;3.70;1.27;;;;;;;6.25;83.22;92189.72;5072306;28;20048;-48
2022/04/24 05:25:10;;;;;;;3.45;0.90;;;;;;;6.19;81.70;92195.69;5072945;28;20048;-54
2022/04/24 05:27:37;;;;;;;3.05;1.15;;;;;;;6.18;81.61;92190.69;5072427;28;20089;-50
2022/04/24 05:30:07;;;;;;;1.50;0.55;;;;;;;6.11;81.84;92178.00;5071511;28;20463;-46
2022/04/24 05:32:49;;;;;;;1.40;0.60;;;;;;;6.22;80.87;92185.91;5071077;28;20449;-53
2022/04/24 05:35:16;;;;;;;1.45;0.50;;;;;;;6.12;80.08;92185.00;5072598;28;20511;-52
2022/04/24 05:37:47;;;;;;;1.67;0.60;;;;;;;6.17;80.62;92210.94;5072002;28;20048;-46
2022/04/24 05:40:15;;;;;;;2.00;0.70;;;;;;;6.18;80.80;92205.06;5071718;28;20039;-48
2022/04/24 05:42:53;;;;;;;2.83;0.75;;;;;;;6.05;80.31;92212.41;5071883;28;20047;-53
2022/04/24 05:45:27;;;;;;;5.23;3.00;;;;;;;6.07;81.01;92223.63;5072556;28;20075;-48
2022/04/24 05:47:55;;;;;;;2.40;1.10;;;;;;;6.16;81.68;92234.69;5071543;28;20169;-47
2022/04/24 05:50:23;;;;;;;2.10;1.02;;;;;;;6.17;81.35;92243.63;5071123;28;20036;-47
2022/04/24 05:52:53;;;;;;;1.98;0.70;;;;;;;6.27;80.54;92236.38;5071934;28;20051;-46
2022/04/24 05:55:19;;;;;;;1.60;0.70;;;;;;;6.21;80.23;92233.41;5072325;28;20070;-49
2022/04/24 05:57:49;;;;;;;1.80;0.60;;;;;;;6.30;80.48;92233.56;5071687;28;20049;-50
2022/04/24 06:00:16;;;;;;;1.70;0.60;;;;;;;6.05;80.63;92230.72;5070697;28;20040;-47
2022/04/24 06:02:50;;;;;;;1.30;0.50;;;;;;;6.18;80.27;92231.56;5071637;28;20052;-54
2022/04/24 06:05:17;;;;;;;1.63;0.40;;;;;;;6.20;79.65;92229.91;5072040;28;20409;-53
2022/04/24 06:07:43;;;;;;;1.52;0.70;;;;;;;6.06;80.03;92232.25;5071386;28;20036;-49
2022/04/24 06:10:11;;;;;;;1.60;0.50;;;;;;;6.04;81.01;92226.44;5071851;28;20044;-46
2022/04/24 06:12:49;;;;;;;1.95;0.60;;;;;;;5.98;80.06;92226.97;5066645;28;20047;-46
2022/04/24 06:15:20;;;;;;;1.65;0.65;;;;;;;6.22;80.21;92226.78;5066472;28;20405;-48
2022/04/24 06:17:48;;;;;;;1.75;0.60;;;;;;;6.13;80.77;92232.06;5051428;28;20383;-46
2022/04/24 06:20:16;;;;;;;1.85;0.60;;;;;;;6.40;78.79;92226.31;5050137;28;20075;-46
2022/04/24 06:22:47;;;;;;;2.27;1.20;;;;;;;6.22;79.92;92229.50;5051089;28;20047;-47
2022/04/24 06:25:19;;;;;;;1.50;0.65;;;;;;;6.26;79.35;92232.91;5051520;28;20040;-50
2022/04/24 06:27:47;;;;;;;2.65;1.67;;;;;;;6.32;79.11;92233.91;5051160;28;20041;-47
2022/04/24 06:30:15;;;;;;;3.13;1.95;;;;;;;5.98;82.09;92229.69;5071468;28;20089;-53
2022/04/24 06:32:43;;;;;;;2.35;1.20;;;;;;;6.30;81.11;92233.56;5071240;28;20062;-49
2022/04/24 06:35:17;;;;;;;1.73;0.70;;;;;;;6.44;79.83;92224.25;5071421;28;20041;-51
2022/04/24 06:37:48;;;;;;;1.50;0.60;;;;;;;6.27;82.13;92225.47;5069820;28;20051;-46
2022/04/24 06:40:16;;;;;;;1.60;0.73;;;;;;;6.39;80.12;92225.53;5071405;28;20032;-49
2022/04/24 06:42:57;;;;;;;1.40;0.55;;;;;;;6.28;81.44;92232.44;5070630;28;20486;-49
2022/04/24 06:45:27;;;;;;;18.58;9.80;;;;;;;6.73;80.53;92234.38;5071411;28;20042;-51
2022/04/24 06:48:00;;;;;;;3.13;1.53;;;;;;;6.96;80.66;92241.50;5070257;28;21432;-47
2022/04/24 06:50:29;;;;;;;1.95;0.95;;;;;;;6.98;80.11;92245.34;5069628;28;20040;-48
2022/04/24 06:52:57;;;;;;;2.65;1.38;;;;;;;6.63;81.53;92249.81;5068894;28;20774;-48
2022/04/24 06:55:24;;;;;;;2.92;1.23;;;;;;;5.91;82.42;92248.13;5071066;28;20048;-49
2022/04/24 06:57:51;;;;;;;2.15;1.00;;;;;;;5.75;84.51;92238.78;5070646;28;20044;-52
2022/04/24 07:00:19;;;;;;;2.00;0.90;;;;;;;6.26;82.88;92246.50;5070973;28;20058;-46
2022/04/24 07:02:47;;;;;;;2.33;1.00;;;;;;;6.32;82.87;92239.34;5070347;28;20379;-47
2022/04/24 07:05:15;;;;;;;2.20;1.00;;;;;;;6.32;82.92;92246.75;5070935;28;20040;-47
2022/04/24 07:07:42;;;;;;;3.10;1.30;;;;;;;5.80;84.71;92249.16;5069112;28;20033;-51
2022/04/24 07:10:09;;;;;;;2.75;1.30;;;;;;;6.36;83.18;92253.63;5070573;28;20044;-48
2022/04/24 07:12:46;;;;;;;2.23;1.00;;;;;;;6.86;81.36;92265.16;5066212;28;20039;-50
2022/04/24 07:15:17;;;;;;;2.40;1.00;;;;;;;7.13;80.24;92264.78;5050858;28;20041;-47
2022/04/24 07:17:45;;;;;;;2.45;1.05;;;;;;;7.26;79.28;92264.78;5050168;28;20063;-47
2022/04/24 07:20:14;;;;;;;1.70;0.70;;;;;;;7.41;77.86;92270.59;5050082;28;20033;-51
2022/04/24 07:22:58;;;;;;;5.90;4.22;;;;;;;7.56;76.78;92273.66;5049928;28;20052;-52
2022/04/24 07:25:26;;;;;;;4.50;3.00;;;;;;;7.28;77.19;92272.53;5050511;28;20043;-48
2022/04/24 07:27:53;;;;;;;2.85;1.52;;;;;;;7.28;78.31;92272.53;5050932;28;20040;-51
2022/04/24 07:30:21;;;;;;;3.10;1.80;;;;;;;7.31;78.15;92277.91;5070514;28;20037;-48
2022/04/24 07:32:53;;;;;;;2.83;1.50;;;;;;;7.59;78.93;92278.25;5069827;28;20051;-47
2022/04/24 07:35:27;;;;;;;2.80;1.10;;;;;;;7.56;77.85;92288.06;5070350;28;20044;-49
2022/04/24 07:37:54;;;;;;;2.90;1.50;;;;;;;7.21;80.28;92287.16;5078508;28;21015;-47
2022/04/24 07:40:23;;;;;;;2.70;1.40;;;;;;;7.23;81.13;92284.00;5070208;28;20036;-46
2022/04/24 07:42:51;;;;;;;2.33;1.00;;;;;;;7.25;80.53;92285.09;5068728;28;20505;-46
2022/04/24 07:45:20;;;;;;;2.00;0.90;;;;;;;6.92;82.00;92290.69;5070331;28;20036;-48
2022/04/24 07:47:48;;;;;;;2.58;1.15;;;;;;;6.94;82.66;92290.25;5068410;28;20036;-46
2022/04/24 07:50:16;;;;;;;2.67;1.50;;;;;;;7.07;83.65;92301.22;5070076;28;20039;-46
2022/04/24 07:52:46;;;;;;;3.00;1.60;;;;;;;7.17;81.88;92300.16;5068249;28;20043;-48
2022/04/24 07:55:17;;;;;;;1.90;0.95;;;;;;;7.07;82.20;92298.47;5069149;28;20059;-45
2022/04/24 07:57:45;;;;;;;2.22;0.80;;;;;;;6.88;83.03;92298.22;5069742;28;20041;-51
2022/04/24 08:00:12;;;;;;;1.90;1.08;;;;;;;6.94;83.14;92295.69;5070046;28;20085;-46
2022/04/24 08:02:49;;;;;;;2.17;0.90;;;;;;;7.03;82.92;92300.56;5071475;28;20081;-46
2022/04/24 08:05:27;;;;;;;1.90;0.80;;;;;;;7.11;82.82;92302.63;5074401;28;20052;-46
2022/04/24 08:07:55;;;;;;;2.10;1.00;;;;;;;6.98;83.57;92305.34;5072808;28;20041;-46
2022/04/24 08:10:24;;;;;;;2.60;1.13;;;;;;;7.09;83.34;92304.28;5074384;28;20037;-46
2022/04/24 08:12:53;;;;;;;2.30;1.10;;;;;;;7.00;84.01;92305.66;5063456;28;20504;-46
2022/04/24 08:15:21;;;;;;;2.30;1.20;;;;;;;6.95;83.25;92302.69;5071002;28;20045;-50
2022/04/24 08:17:47;;;;;;;2.33;1.00;;;;;;;7.08;83.61;92303.47;5073339;28;20045;-46
2022/04/24 08:20:16;;;;;;;2.30;1.15;;;;;;;7.26;82.22;92304.94;5073433;28;20042;-48
2022/04/24 08:22:51;;;;;;;3.10;1.17;;;;;;;7.71;81.47;92314.97;5073502;28;20047;-49
2022/04/24 08:25:21;;;;;;;2.30;1.30;;;;;;;7.62;81.40;92312.09;5074117;28;20051;-47
2022/04/24 08:27:48;;;;;;;2.20;1.00;;;;;;;7.54;81.57;92317.75;5073142;28;20040;-49
2022/04/24 08:30:20;;;;;;;2.05;1.00;;;;;;;7.71;80.81;92317.69;5073736;28;20040;-49
2022/04/24 08:32:48;;;;;;;2.20;1.23;;;;;;;7.49;81.87;92323.78;5073298;28;20041;-47
2022/04/24 08:35:17;;;;;;;2.22;1.20;;;;;;;7.61;80.55;92325.00;5073609;28;20040;-51
2022/04/24 08:37:44;;;;;;;2.35;1.15;;;;;;;7.33;81.53;92326.59;5073014;28;20048;-47
2022/04/24 08:40:13;;;;;;;2.40;1.20;;;;;;;7.32;82.76;92317.63;5073458;28;20036;-47
2022/04/24 08:42:41;;;;;;;2.65;1.40;;;;;;;7.45;82.49;92325.09;5071864;28;20482;-49
2022/04/24 08:45:13;;;;;;;5.63;2.97;;;;;;;7.60;82.17;92332.41;5073477;28;20044;-51
2022/04/24 08:47:41;;;;;;;3.97;2.25;;;;;;;7.52;82.83;92339.28;5073079;28;20044;-46
2022/04/24 08:50:09;;;;;;;3.00;1.80;;;;;;;7.49;81.41;92331.97;5071830;28;20044;-50
2022/04/24 08:52:36;;;;;;;4.53;2.23;;;;;;;7.59;82.52;92336.34;5072787;28;20048;-46
2022/04/24 08:55:04;;;;;;;13.70;8.10;;;;;;;7.50;81.35;92341.66;5072366;28;20048;-47
2022/04/24 08:57:31;;;;;;;9.32;6.18;;;;;;;7.50;81.62;92343.63;5071378;28;20331;-47
2022/04/24 08:59:59;;;;;;;6.22;4.10;;;;;;;7.45;81.14;92336.75;5073115;28;20044;-50
2022/04/24 09:02:47;;;;;;;2.80;1.70;;;;;;;7.57;81.05;92338.75;5072405;28;20059;-49
2022/04/24 09:05:14;;;;;;;2.87;1.63;;;;;;;7.66;81.46;92342.78;5072083;28;20052;-49
2022/04/24 09:07:43;;;;;;;3.75;1.70;;;;;;;7.55;82.65;92343.88;5072533;28;20048;-50
2022/04/24 09:10:30;;;;;;;3.10;1.85;;;;;;;7.63;82.11;92341.69;5072579;28;20048;-48
2022/04/24 09:12:59;;;;;;;3.00;1.58;;;;;;;7.78;80.58;92348.25;5065302;28;20094;-48
2022/04/24 09:15:28;;;;;;;3.10;1.88;;;;;;;7.69;81.88;92347.41;5054803;28;20037;-51
2022/04/24 09:18:02;;;;;;;3.23;1.60;;;;;;;8.00;81.21;92347.59;5052046;28;20063;-47
2022/04/24 09:20:41;;;;;;;3.75;1.73;;;;;;;8.09;80.84;92349.69;5052084;28;20036;-49
2022/04/24 09:23:08;;;;;;;3.40;1.63;;;;;;;8.43;80.17;92345.53;5052649;28;20071;-47
2022/04/24 09:25:39;;;;;;;2.60;1.50;;;;;;;8.47;78.44;92337.97;5052279;28;20045;-49
2022/04/24 09:28:05;;;;;;;2.85;1.65;;;;;;;8.70;78.13;92334.84;5055244;28;20060;-50
2022/04/24 09:30:35;;;;;;;3.10;1.50;;;;;;;8.73;77.67;92341.41;5072277;28;20519;-52
2022/04/24 09:33:06;;;;;;;2.40;1.30;;;;;;;8.65;76.78;92342.84;5072547;28;20093;-53
2022/04/24 09:35:36;;;;;;;2.60;1.50;;;;;;;8.63;77.18;92348.75;5071070;28;20082;-49
2022/04/24 09:38:14;;;;;;;3.38;1.70;;;;;;;8.67;77.58;92345.91;5071301;28;20048;-47
2022/04/24 09:40:49;;;;;;;2.47;1.38;;;;;;;8.64;76.99;92344.81;5072184;28;20055;-48
2022/04/24 09:43:18;;;;;;;3.03;1.77;;;;;;;8.75;76.27;92349.94;5072484;28;20040;-50
2022/04/24 09:45:55;;;;;;;3.50;1.48;;;;;;;8.92;76.55;92347.81;5071907;28;20042;-52
2022/04/24 09:48:23;;;;;;;4.50;2.20;;;;;;;8.44;76.40;92353.28;5072336;28;20079;-48
2022/04/24 09:50:50;;;;;;;2.92;1.50;;;;;;;8.58;75.81;92357.53;5071951;28;20436;-51
2022/04/24 09:53:21;;;;;;;2.63;1.58;;;;;;;8.88;75.12;92358.13;5072257;28;20132;-46
2022/04/24 09:55:49;;;;;;;3.33;1.80;;;;;;;8.86;75.84;92355.06;5071699;28;20109;-50
2022/04/24 09:58:17;;;;;;;4.13;1.70;;;;;;;8.97;76.87;92366.38;5071966;28;20052;-53
2022/04/24 10:00:46;;;;;;;3.40;1.70;;;;;;;9.50;75.06;92363.75;5071657;28;20242;-52
2022/04/24 10:03:16;;;;;;;3.10;1.70;;;;;;;9.50;71.78;92354.78;5071946;28;20040;-47
2022/04/24 10:05:46;;;;;;;4.13;1.80;;;;;;;9.46;72.84;92362.38;5071398;28;20540;-47
2022/04/24 10:08:18;;;;;;;3.33;1.80;;;;;;;9.25;72.92;92361.88;5070679;28;20129;-46
2022/04/24 10:10:50;;;;;;;3.10;1.48;;;;;;;9.35;72.40;92368.19;5071385;28;20052;-46
2022/04/24 10:13:20;;;;;;;2.72;1.60;;;;;;;9.70;72.33;92359.91;5064239;28;20062;-50
2022/04/24 10:16:18;;;;;;;3.00;1.38;;;;;;;9.59;69.29;92357.56;5066331;28;20039;-51
2022/04/24 10:19:04;;;;;;;2.40;1.30;;;;;;;9.41;70.41;92360.94;5051057;28;20398;-47
2022/04/24 10:21:40;;;;;;;2.57;1.30;;;;;;;9.86;69.88;92364.41;5051109;28;20045;-46
2022/04/24 10:24:11;;;;;;;2.17;1.10;;;;;;;9.44;69.85;92362.00;5051499;28;20044;-49
2022/04/24 10:26:39;;;;;;;2.35;1.10;;;;;;;9.23;70.74;92369.03;5050785;28;20044;-45
2022/04/24 10:29:08;;;;;;;2.25;1.08;;;;;;;9.36;69.93;92367.00;5061181;28;20066;-50
2022/04/24 10:31:46;;;;;;;1.90;1.00;;;;;;;9.35;69.96;92366.22;5070898;28;20045;-47
2022/04/24 10:34:13;;;;;;;2.63;0.90;;;;;;;9.68;68.80;92368.59;5071135;28;20416;-46
2022/04/24 10:37:13;;;;;;;2.10;1.10;;;;;;;9.39;68.92;92377.06;5070816;28;20051;-50
2022/04/24 10:39:40;;;;;;;2.33;1.40;;;;;;;9.50;69.60;92379.44;5058600;28;20056;-48
2022/04/24 10:42:11;;;;;;;1.88;0.90;;;;;;;9.30;69.51;92380.50;5070094;28;20053;-51
2022/04/24 10:44:48;;;;;;;2.13;1.10;;;;;;;9.48;68.84;92379.09;5070954;28;20039;-53
2022/04/24 10:47:15;;;;;;;2.93;1.30;;;;;;;9.30;71.14;92385.97;5071150;28;20051;-46
2022/04/24 10:49:42;;;;;;;2.50;1.20;;;;;;;9.01;69.97;92386.19;5070613;28;20053;-50
2022/04/24 10:52:09;;;;;;;3.22;1.42;;;;;;;8.89;71.50;92393.22;5071004;28;20040;-48
2022/04/24 10:54:38;;;;;;;3.10;1.33;;;;;;;9.25;70.79;92386.53;5070634;28;20036;-48
2022/04/24 10:57:19;;;;;;;2.28;1.15;;;;;;;9.50;70.36;92390.38;5070961;28;20428;-50
2022/04/24 10:59:52;;;;;;;6.80;3.90;;;;;;;9.65;69.30;92394.13;5070530;28;20036;-54
2022/04/24 11:02:27;;;;;;;7.78;4.47;;;;;;;9.51;69.13;92391.91;5071010;28;20284;-50
2022/04/24 11:05:06;;;;;;;6.28;3.70;;;;;;;10.06;67.87;92388.72;5070318;28;20040;-52
2022/04/24 11:07:34;;;;;;;11.18;6.20;;;;;;;9.56;68.21;92391.34;5070405;28;20067;-55
2022/04/24 11:10:11;;;;;;;7.72;3.95;;;;;;;9.49;69.39;92388.84;5070534;28;20047;-49
2022/04/24 11:12:40;;;;;;;9.40;4.47;;;;;;;9.76;68.82;92389.03;5062498;28;20512;-50
2022/04/24 11:15:12;;;;;;;17.85;10.52;;;;;;;9.60;69.22;92392.72;5055547;28;20555;-55
2022/04/24 11:17:39;;;;;;;8.43;5.15;;;;;;;9.11;69.99;92393.25;5050214;28;20440;-47
2022/04/24 11:20:13;;;;;;;10.73;6.07;;;;;;;9.67;70.10;92388.94;5050282;28;20044;-50
2022/04/24 11:22:54;;;;;;;9.80;6.40;;;;;;;9.77;68.07;92398.00;5050258;28;20033;-50
2022/04/24 11:25:24;;;;;;;5.37;3.33;;;;;;;9.87;67.93;92391.34;5050258;28;20048;-53
2022/04/24 11:27:56;;;;;;;8.63;5.32;;;;;;;9.99;69.16;92403.44;5050984;28;20055;-46
2022/04/24 11:30:37;;;;;;;6.32;3.75;;;;;;;9.79;69.15;92403.78;5070370;28;20062;-51
2022/04/24 11:33:06;;;;;;;7.30;4.68;;;;;;;9.96;69.08;92401.59;5069528;28;20048;-48
2022/04/24 11:35:36;;;;;;;3.88;2.25;;;;;;;9.82;66.63;92400.16;5068285;28;20048;-50
2022/04/24 11:38:08;;;;;;;3.47;2.47;;;;;;;9.35;69.17;92403.78;5068293;28;20040;-49
2022/04/24 11:40:43;;;;;;;3.53;1.80;;;;;;;9.40;69.30;92405.97;5069791;28;20044;-50
2022/04/24 11:43:18;;;;;;;3.67;1.88;;;;;;;9.57;69.34;92401.81;5061082;28;20049;-51
2022/04/24 11:51:32;;;;;;;4.10;1.27;;;;;;;9.43;69.69;92409.78;5050139;28;20037;-49